sensor_id;sensor_type;location;lat;lon;timestamp;temperature;humidity
38798;SHT11;24546;52.240;16.826;2022-12-22T00:01:19;6.30;99.90
38798;SHT11;24546;52.240;16.826;2022-12-22T00:06:38;6.30;99.90
38798;SHT11;24546;52.240;16.826;2022-12-22T00:11:57;6.20;99.90
38798;SHT11;24546;52.240;16.826;2022-12-22T00:17:25;6.20;99.90
38798;SHT11;24546;52.240;16.826;2022-12-22T00:22:45;6.20;99.90
38798;SHT11;24546;52.240;16.826;2022-12-22T00:28:13;6.20;99.90
38798;SHT11;24546;52.240;16.826;2022-12-22T00:33:33;6.30;99.90
38798;SHT11;24546;52.240;16.826;2022-12-22T00:38:52;6.30;99.90
38798;SHT11;24546;52.240;16.826;2022-12-22T00:44:11;6.30;99.90
38798;SHT11;24546;52.240;16.826;2022-12-22T00:49:32;6.40;99.90
38798;SHT11;24546;52.240;16.826;2022-12-22T00:54:53;6.30;99.90
38798;SHT11;24546;52.240;16.826;2022-12-22T01:00:18;6.30;99.90
38798;SHT11;24546;52.240;16.826;2022-12-22T01:05:37;6.30;99.90
38798;SHT11;24546;52.240;16.826;2022-12-22T01:10:57;6.30;99.90
38798;SHT11;24546;52.240;16.826;2022-12-22T01:16:17;6.30;99.90
38798;SHT11;24546;52.240;16.826;2022-12-22T01:21:36;6.20;99.90
38798;SHT11;24546;52.240;16.826;2022-12-22T01:26:56;6.20;99.90
38798;SHT11;24546;52.240;16.826;2022-12-22T01:32:15;6.10;99.90
38798;SHT11;24546;52.240;16.826;2022-12-22T01:37:35;6.10;99.90
38798;SHT11;24546;52.240;16.826;2022-12-22T01:42:54;6.00;99.90
38798;SHT11;24546;52.240;16.826;2022-12-22T01:48:27;6.00;99.90
38798;SHT11;24546;52.240;16.826;2022-12-22T01:53:47;6.00;99.90
38798;SHT11;24546;52.240;16.826;2022-12-22T01:59:06;6.00;99.90
38798;SHT11;24546;52.240;16.826;2022-12-22T02:04:31;6.00;99.90
38798;SHT11;24546;52.240;16.826;2022-12-22T02:10:21;6.00;99.90
38798;SHT11;24546;52.240;16.826;2022-12-22T02:15:49;6.10;99.90
38798;SHT11;24546;52.240;16.826;2022-12-22T02:21:13;6.10;99.90
38798;SHT11;24546;52.240;16.826;2022-12-22T02:26:45;6.10;99.90
38798;SHT11;24546;52.240;16.826;2022-12-22T02:32:05;6.10;99.90
38798;SHT11;24546;52.240;16.826;2022-12-22T02:37:57;6.20;99.90
38798;SHT11;24546;52.240;16.826;2022-12-22T02:49:03;6.20;99.90
38798;SHT11;24546;52.240;16.826;2022-12-22T02:54:25;6.10;99.90
38798;SHT11;24546;52.240;16.826;2022-12-22T02:59:47;6.10;99.90
38798;SHT11;24546;52.240;16.826;2022-12-22T03:05:06;6.00;99.90
38798;SHT11;24546;52.240;16.826;2022-12-22T03:10:26;6.00;99.90
38798;SHT11;24546;52.240;16.826;2022-12-22T03:15:46;5.90;99.90
38798;SHT11;24546;52.240;16.826;2022-12-22T03:21:05;5.90;99.90
38798;SHT11;24546;52.240;16.826;2022-12-22T03:26:25;5.90;99.90
38798;SHT11;24546;52.240;16.826;2022-12-22T03:31:26;5.90;99.90
38798;SHT11;24546;52.240;16.826;2022-12-22T03:36:27;5.90;99.90
38798;SHT11;24546;52.240;16.826;2022-12-22T03:41:28;5.80;99.90
38798;SHT11;24546;52.240;16.826;2022-12-22T03:46:48;5.80;99.90
38798;SHT11;24546;52.240;16.826;2022-12-22T03:51:49;5.70;99.90
38798;SHT11;24546;52.240;16.826;2022-12-22T03:56:51;5.70;99.90
38798;SHT11;24546;52.240;16.826;2022-12-22T04:01:53;5.50;99.90
38798;SHT11;24546;52.240;16.826;2022-12-22T04:06:54;5.50;99.90
38798;SHT11;24546;52.240;16.826;2022-12-22T04:11:55;5.40;99.90
38798;SHT11;24546;52.240;16.826;2022-12-22T04:17:15;5.30;99.90
38798;SHT11;24546;52.240;16.826;2022-12-22T04:22:16;5.20;99.90
38798;SHT11;24546;52.240;16.826;2022-12-22T04:27:17;5.10;99.90
38798;SHT11;24546;52.240;16.826;2022-12-22T04:32:18;5.10;99.90
38798;SHT11;24546;52.240;16.826;2022-12-22T04:37:19;5.00;99.90
38798;SHT11;24546;52.240;16.826;2022-12-22T04:42:20;4.90;99.90
38798;SHT11;24546;52.240;16.826;2022-12-22T04:47:21;4.80;99.90
38798;SHT11;24546;52.240;16.826;2022-12-22T04:52:22;4.80;99.90
38798;SHT11;24546;52.240;16.826;2022-12-22T04:57:23;4.80;99.90
38798;SHT11;24546;52.240;16.826;2022-12-22T05:02:24;4.70;99.90
38798;SHT11;24546;52.240;16.826;2022-12-22T05:07:25;4.70;99.90
38798;SHT11;24546;52.240;16.826;2022-12-22T05:12:26;4.70;99.90
38798;SHT11;24546;52.240;16.826;2022-12-22T05:17:46;4.60;99.90
38798;SHT11;24546;52.240;16.826;2022-12-22T05:22:47;4.50;99.90
38798;SHT11;24546;52.240;16.826;2022-12-22T05:27:49;4.50;99.90
38798;SHT11;24546;52.240;16.826;2022-12-22T05:32:50;4.50;99.90
38798;SHT11;24546;52.240;16.826;2022-12-22T05:37:51;4.50;99.90
38798;SHT11;24546;52.240;16.826;2022-12-22T05:42:52;4.60;99.90
38798;SHT11;24546;52.240;16.826;2022-12-22T05:47:53;4.70;99.90
38798;SHT11;24546;52.240;16.826;2022-12-22T05:52:54;4.80;99.90
38798;SHT11;24546;52.240;16.826;2022-12-22T05:57:55;4.80;99.90
38798;SHT11;24546;52.240;16.826;2022-12-22T06:02:56;4.80;99.90
38798;SHT11;24546;52.240;16.826;2022-12-22T06:07:57;4.80;99.90
38798;SHT11;24546;52.240;16.826;2022-12-22T06:12:58;4.80;99.90
38798;SHT11;24546;52.240;16.826;2022-12-22T06:18:00;4.80;99.90
38798;SHT11;24546;52.240;16.826;2022-12-22T06:23:01;4.80;99.90
38798;SHT11;24546;52.240;16.826;2022-12-22T06:28:02;4.80;99.90
38798;SHT11;24546;52.240;16.826;2022-12-22T06:33:03;4.90;99.90
38798;SHT11;24546;52.240;16.826;2022-12-22T06:38:04;4.90;99.90
38798;SHT11;24546;52.240;16.826;2022-12-22T06:43:05;5.00;99.90
38798;SHT11;24546;52.240;16.826;2022-12-22T06:48:10;5.00;99.90
38798;SHT11;24546;52.240;16.826;2022-12-22T06:53:11;5.10;99.90
38798;SHT11;24546;52.240;16.826;2022-12-22T06:58:12;5.10;99.90
38798;SHT11;24546;52.240;16.826;2022-12-22T07:03:13;5.10;99.90
38798;SHT11;24546;52.240;16.826;2022-12-22T07:08:15;5.10;99.90
38798;SHT11;24546;52.240;16.826;2022-12-22T07:13:16;5.10;99.90
38798;SHT11;24546;52.240;16.826;2022-12-22T07:18:19;5.20;99.90
38798;SHT11;24546;52.240;16.826;2022-12-22T07:23:21;5.20;99.90
38798;SHT11;24546;52.240;16.826;2022-12-22T07:28:22;5.20;99.90
38798;SHT11;24546;52.240;16.826;2022-12-22T07:33:23;5.20;99.90
38798;SHT11;24546;52.240;16.826;2022-12-22T07:38:24;5.30;99.90
38798;SHT11;24546;52.240;16.826;2022-12-22T07:43:25;5.30;99.90
38798;SHT11;24546;52.240;16.826;2022-12-22T07:48:27;5.40;99.90
38798;SHT11;24546;52.240;16.826;2022-12-22T07:53:46;5.50;99.90
38798;SHT11;24546;52.240;16.826;2022-12-22T07:58:47;5.60;99.90
38798;SHT11;24546;52.240;16.826;2022-12-22T08:03:48;5.60;99.90
38798;SHT11;24546;52.240;16.826;2022-12-22T08:08:50;5.60;99.90
38798;SHT11;24546;52.240;16.826;2022-12-22T08:13:51;5.60;99.90
38798;SHT11;24546;52.240;16.826;2022-12-22T08:18:52;5.70;99.90
38798;SHT11;24546;52.240;16.826;2022-12-22T08:23:53;5.70;99.90
38798;SHT11;24546;52.240;16.826;2022-12-22T08:29:13;5.90;99.90
38798;SHT11;24546;52.240;16.826;2022-12-22T08:34:16;5.90;99.90
38798;SHT11;24546;52.240;16.826;2022-12-22T08:39:19;6.00;99.90
38798;SHT11;24546;52.240;16.826;2022-12-22T08:44:24;6.20;99.90
38798;SHT11;24546;52.240;16.826;2022-12-22T08:49:25;6.30;99.90
38798;SHT11;24546;52.240;16.826;2022-12-22T08:54:26;6.40;99.90
38798;SHT11;24546;52.240;16.826;2022-12-22T08:59:27;6.40;99.90
38798;SHT11;24546;52.240;16.826;2022-12-22T09:04:29;6.60;99.90
38798;SHT11;24546;52.240;16.826;2022-12-22T09:09:32;6.60;99.90
38798;SHT11;24546;52.240;16.826;2022-12-22T09:14:34;6.80;99.90
38798;SHT11;24546;52.240;16.826;2022-12-22T09:19:35;6.90;99.90
38798;SHT11;24546;52.240;16.826;2022-12-22T09:24:36;6.80;99.90
38798;SHT11;24546;52.240;16.826;2022-12-22T09:29:38;6.80;99.90
38798;SHT11;24546;52.240;16.826;2022-12-22T09:34:40;7.10;99.90
38798;SHT11;24546;52.240;16.826;2022-12-22T09:39:41;7.20;99.90
38798;SHT11;24546;52.240;16.826;2022-12-22T09:44:44;7.30;99.90
38798;SHT11;24546;52.240;16.826;2022-12-22T09:49:45;7.40;99.90
38798;SHT11;24546;52.240;16.826;2022-12-22T09:54:46;7.50;99.90
38798;SHT11;24546;52.240;16.826;2022-12-22T09:59:47;7.60;99.90
38798;SHT11;24546;52.240;16.826;2022-12-22T10:05:21;7.60;99.90
38798;SHT11;24546;52.240;16.826;2022-12-22T10:10:29;7.80;99.90
38798;SHT11;24546;52.240;16.826;2022-12-22T10:15:39;7.90;99.90
38798;SHT11;24546;52.240;16.826;2022-12-22T10:20:42;8.00;99.90
38798;SHT11;24546;52.240;16.826;2022-12-22T10:31:22;8.20;99.90
38798;SHT11;24546;52.240;16.826;2022-12-22T10:36:26;8.40;99.90
38798;SHT11;24546;52.240;16.826;2022-12-22T10:41:30;8.50;99.90
38798;SHT11;24546;52.240;16.826;2022-12-22T10:46:50;8.40;99.90
38798;SHT11;24546;52.240;16.826;2022-12-22T10:51:54;8.40;99.90
38798;SHT11;24546;52.240;16.826;2022-12-22T11:07:24;8.40;99.90
38798;SHT11;24546;52.240;16.826;2022-12-22T11:17:48;8.50;99.90
38798;SHT11;24546;52.240;16.826;2022-12-22T11:28:54;8.50;99.90
38798;SHT11;24546;52.240;16.826;2022-12-22T11:39:25;8.60;99.90
38798;SHT11;24546;52.240;16.826;2022-12-22T11:55:39;8.70;99.90
38798;SHT11;24546;52.240;16.826;2022-12-22T12:00:51;8.80;99.90
38798;SHT11;24546;52.240;16.826;2022-12-22T12:11:17;8.80;99.90
38798;SHT11;24546;52.240;16.826;2022-12-22T12:16:51;8.70;99.90
38798;SHT11;24546;52.240;16.826;2022-12-22T12:22:07;8.60;99.90
38798;SHT11;24546;52.240;16.826;2022-12-22T12:32:54;8.60;99.90
38798;SHT11;24546;52.240;16.826;2022-12-22T12:38:04;8.60;99.90
38798;SHT11;24546;52.240;16.826;2022-12-22T12:43:06;8.70;99.90
38798;SHT11;24546;52.240;16.826;2022-12-22T12:53:27;8.80;99.90
38798;SHT11;24546;52.240;16.826;2022-12-22T13:03:41;8.80;99.90
38798;SHT11;24546;52.240;16.826;2022-12-22T13:14:02;8.90;99.90
38798;SHT11;24546;52.240;16.826;2022-12-22T13:19:10;8.90;99.90
38798;SHT11;24546;52.240;16.826;2022-12-22T13:24:28;8.80;99.90
38798;SHT11;24546;52.240;16.826;2022-12-22T13:29:45;8.90;99.90
38798;SHT11;24546;52.240;16.826;2022-12-22T13:40:25;8.90;99.90
38798;SHT11;24546;52.240;16.826;2022-12-22T13:45:38;8.90;99.90
38798;SHT11;24546;52.240;16.826;2022-12-22T13:50:52;8.90;99.90
38798;SHT11;24546;52.240;16.826;2022-12-22T13:55:54;8.90;99.90
38798;SHT11;24546;52.240;16.826;2022-12-22T14:01:17;8.90;99.90
38798;SHT11;24546;52.240;16.826;2022-12-22T14:06:36;8.90;99.90
38798;SHT11;24546;52.240;16.826;2022-12-22T14:11:38;8.90;99.90
38798;SHT11;24546;52.240;16.826;2022-12-22T14:16:49;8.90;99.90
38798;SHT11;24546;52.240;16.826;2022-12-22T14:22:15;9.00;99.90
38798;SHT11;24546;52.240;16.826;2022-12-22T14:32:38;8.90;99.90
38798;SHT11;24546;52.240;16.826;2022-12-22T14:37:39;8.90;99.90
38798;SHT11;24546;52.240;16.826;2022-12-22T14:42:42;8.90;99.90
38798;SHT11;24546;52.240;16.826;2022-12-22T14:47:43;8.80;99.90
38798;SHT11;24546;52.240;16.826;2022-12-22T14:52:49;8.80;99.90
38798;SHT11;24546;52.240;16.826;2022-12-22T14:58:04;8.80;99.90
38798;SHT11;24546;52.240;16.826;2022-12-22T15:03:31;8.80;99.90
38798;SHT11;24546;52.240;16.826;2022-12-22T15:08:38;8.70;99.90
38798;SHT11;24546;52.240;16.826;2022-12-22T15:13:39;8.70;99.90
38798;SHT11;24546;52.240;16.826;2022-12-22T15:18:44;8.70;99.90
38798;SHT11;24546;52.240;16.826;2022-12-22T15:23:45;8.70;99.90
38798;SHT11;24546;52.240;16.826;2022-12-22T15:28:46;8.60;99.90
38798;SHT11;24546;52.240;16.826;2022-12-22T15:33:47;8.60;99.90
38798;SHT11;24546;52.240;16.826;2022-12-22T15:38:48;8.60;99.90
38798;SHT11;24546;52.240;16.826;2022-12-22T15:43:50;8.60;99.90
38798;SHT11;24546;52.240;16.826;2022-12-22T15:48:52;8.50;99.90
38798;SHT11;24546;52.240;16.826;2022-12-22T15:53:54;8.50;99.90
38798;SHT11;24546;52.240;16.826;2022-12-22T15:58:56;8.50;99.90
38798;SHT11;24546;52.240;16.826;2022-12-22T16:03:57;8.50;99.90
38798;SHT11;24546;52.240;16.826;2022-12-22T16:08:59;8.50;99.90
38798;SHT11;24546;52.240;16.826;2022-12-22T16:14:00;8.40;99.90
38798;SHT11;24546;52.240;16.826;2022-12-22T16:19:01;8.40;99.90
38798;SHT11;24546;52.240;16.826;2022-12-22T16:24:02;8.40;99.90
38798;SHT11;24546;52.240;16.826;2022-12-22T16:29:03;8.40;99.90
38798;SHT11;24546;52.240;16.826;2022-12-22T16:34:12;8.40;99.90
38798;SHT11;24546;52.240;16.826;2022-12-22T16:39:13;8.40;99.90
38798;SHT11;24546;52.240;16.826;2022-12-22T16:44:19;8.40;99.90
38798;SHT11;24546;52.240;16.826;2022-12-22T16:49:22;8.40;99.90
38798;SHT11;24546;52.240;16.826;2022-12-22T16:54:23;8.40;99.90
38798;SHT11;24546;52.240;16.826;2022-12-22T16:59:24;8.30;99.90
38798;SHT11;24546;52.240;16.826;2022-12-22T17:04:30;8.30;99.90
38798;SHT11;24546;52.240;16.826;2022-12-22T17:09:38;8.30;99.90
38798;SHT11;24546;52.240;16.826;2022-12-22T17:14:41;8.40;99.90
38798;SHT11;24546;52.240;16.826;2022-12-22T17:19:43;8.40;99.90
38798;SHT11;24546;52.240;16.826;2022-12-22T17:24:44;8.40;99.90
38798;SHT11;24546;52.240;16.826;2022-12-22T17:29:45;8.30;99.90
38798;SHT11;24546;52.240;16.826;2022-12-22T17:34:47;8.40;99.90
38798;SHT11;24546;52.240;16.826;2022-12-22T17:39:50;8.40;99.90
38798;SHT11;24546;52.240;16.826;2022-12-22T17:44:52;8.40;99.90
38798;SHT11;24546;52.240;16.826;2022-12-22T17:49:53;8.50;99.90
38798;SHT11;24546;52.240;16.826;2022-12-22T17:54:55;8.50;99.90
38798;SHT11;24546;52.240;16.826;2022-12-22T17:59:56;8.60;99.90
38798;SHT11;24546;52.240;16.826;2022-12-22T18:04:57;8.60;99.90
38798;SHT11;24546;52.240;16.826;2022-12-22T18:09:59;8.60;99.90
38798;SHT11;24546;52.240;16.826;2022-12-22T18:15:00;8.60;99.90
38798;SHT11;24546;52.240;16.826;2022-12-22T18:20:02;8.60;99.90
38798;SHT11;24546;52.240;16.826;2022-12-22T18:25:15;8.60;99.90
38798;SHT11;24546;52.240;16.826;2022-12-22T18:30:24;8.70;99.90
38798;SHT11;24546;52.240;16.826;2022-12-22T18:35:26;8.70;99.90
38798;SHT11;24546;52.240;16.826;2022-12-22T18:40:38;8.70;99.90
38798;SHT11;24546;52.240;16.826;2022-12-22T18:45:39;8.80;99.90
38798;SHT11;24546;52.240;16.826;2022-12-22T18:50:41;8.90;99.90
38798;SHT11;24546;52.240;16.826;2022-12-22T18:55:42;9.00;99.90
38798;SHT11;24546;52.240;16.826;2022-12-22T19:00:45;8.90;99.90
38798;SHT11;24546;52.240;16.826;2022-12-22T19:05:47;9.00;99.90
38798;SHT11;24546;52.240;16.826;2022-12-22T19:11:04;9.00;99.90
38798;SHT11;24546;52.240;16.826;2022-12-22T19:16:09;9.00;99.90
38798;SHT11;24546;52.240;16.826;2022-12-22T19:21:13;9.10;99.90
38798;SHT11;24546;52.240;16.826;2022-12-22T19:26:23;9.10;99.90
38798;SHT11;24546;52.240;16.826;2022-12-22T19:31:30;9.10;99.90
38798;SHT11;24546;52.240;16.826;2022-12-22T19:36:31;9.10;99.90
38798;SHT11;24546;52.240;16.826;2022-12-22T19:46:40;9.30;99.90
38798;SHT11;24546;52.240;16.826;2022-12-22T19:51:41;9.20;99.90
38798;SHT11;24546;52.240;16.826;2022-12-22T19:56:45;9.20;99.90
38798;SHT11;24546;52.240;16.826;2022-12-22T20:01:47;9.30;99.90
38798;SHT11;24546;52.240;16.826;2022-12-22T20:06:48;9.20;99.90
38798;SHT11;24546;52.240;16.826;2022-12-22T20:11:49;9.10;99.90
38798;SHT11;24546;52.240;16.826;2022-12-22T20:16:50;9.20;99.90
38798;SHT11;24546;52.240;16.826;2022-12-22T20:21:51;9.10;99.90
38798;SHT11;24546;52.240;16.826;2022-12-22T20:26:52;9.20;99.90
38798;SHT11;24546;52.240;16.826;2022-12-22T20:31:53;9.20;99.90
38798;SHT11;24546;52.240;16.826;2022-12-22T20:36:54;9.20;99.90
38798;SHT11;24546;52.240;16.826;2022-12-22T20:41:55;9.10;99.90
38798;SHT11;24546;52.240;16.826;2022-12-22T20:46:56;9.20;99.90
38798;SHT11;24546;52.240;16.826;2022-12-22T20:51:57;9.20;99.90
38798;SHT11;24546;52.240;16.826;2022-12-22T20:56:58;9.20;99.90
38798;SHT11;24546;52.240;16.826;2022-12-22T21:01:59;9.30;99.90
38798;SHT11;24546;52.240;16.826;2022-12-22T21:07:00;9.20;99.90
38798;SHT11;24546;52.240;16.826;2022-12-22T21:12:01;9.10;99.90
38798;SHT11;24546;52.240;16.826;2022-12-22T21:17:03;9.10;99.90
38798;SHT11;24546;52.240;16.826;2022-12-22T21:22:04;9.30;99.90
38798;SHT11;24546;52.240;16.826;2022-12-22T21:27:05;9.20;99.90
38798;SHT11;24546;52.240;16.826;2022-12-22T21:32:12;9.20;99.90
38798;SHT11;24546;52.240;16.826;2022-12-22T21:37:16;9.20;99.90
38798;SHT11;24546;52.240;16.826;2022-12-22T21:42:18;9.30;99.90
38798;SHT11;24546;52.240;16.826;2022-12-22T21:47:19;9.30;99.90
38798;SHT11;24546;52.240;16.826;2022-12-22T21:52:20;9.40;99.90
38798;SHT11;24546;52.240;16.826;2022-12-22T21:57:21;9.20;99.90
38798;SHT11;24546;52.240;16.826;2022-12-22T22:02:23;9.00;99.90
38798;SHT11;24546;52.240;16.826;2022-12-22T22:07:24;9.10;99.90
38798;SHT11;24546;52.240;16.826;2022-12-22T22:12:25;8.90;99.90
38798;SHT11;24546;52.240;16.826;2022-12-22T22:17:32;8.80;99.90
38798;SHT11;24546;52.240;16.826;2022-12-22T22:22:33;8.60;99.90
38798;SHT11;24546;52.240;16.826;2022-12-22T22:27:34;8.70;99.90
38798;SHT11;24546;52.240;16.826;2022-12-22T22:32:35;8.50;99.90
38798;SHT11;24546;52.240;16.826;2022-12-22T22:37:37;8.40;99.90
38798;SHT11;24546;52.240;16.826;2022-12-22T22:42:40;8.30;99.90
38798;SHT11;24546;52.240;16.826;2022-12-22T22:47:41;8.20;99.90
38798;SHT11;24546;52.240;16.826;2022-12-22T22:52:42;8.10;99.90
38798;SHT11;24546;52.240;16.826;2022-12-22T22:57:43;8.00;99.90
38798;SHT11;24546;52.240;16.826;2022-12-22T23:02:44;7.80;99.90
38798;SHT11;24546;52.240;16.826;2022-12-22T23:07:45;7.80;99.90
38798;SHT11;24546;52.240;16.826;2022-12-22T23:12:47;7.90;99.90
38798;SHT11;24546;52.240;16.826;2022-12-22T23:17:50;7.90;99.90
38798;SHT11;24546;52.240;16.826;2022-12-22T23:22:51;8.00;99.90
38798;SHT11;24546;52.240;16.826;2022-12-22T23:27:52;8.00;99.90
38798;SHT11;24546;52.240;16.826;2022-12-22T23:32:53;8.00;99.90
38798;SHT11;24546;52.240;16.826;2022-12-22T23:37:54;8.00;99.90
38798;SHT11;24546;52.240;16.826;2022-12-22T23:42:55;8.00;99.90
38798;SHT11;24546;52.240;16.826;2022-12-22T23:47:57;8.00;99.90
38798;SHT11;24546;52.240;16.826;2022-12-22T23:52:58;7.90;99.90
38798;SHT11;24546;52.240;16.826;2022-12-22T23:57:59;7.80;99.90
